createdAt,value
2019-04-14T00:01:39.364Z,73.97
2019-04-14T00:04:46.573Z,73.81
2019-04-14T00:07:51.722Z,74.06
2019-04-14T00:10:57.178Z,73.80
2019-04-14T00:14:01.769Z,73.86
2019-04-14T00:17:06.610Z,73.78
2019-04-14T00:20:11.865Z,73.94
2019-04-14T00:23:17.241Z,73.75
2019-04-14T00:26:31.679Z,73.63
2019-04-14T00:29:37.066Z,73.57
2019-04-14T00:32:55.277Z,73.23
2019-04-14T00:36:19.700Z,73.01
2019-04-14T00:39:27.482Z,73.13
2019-04-14T00:42:53.903Z,72.84
2019-04-14T00:46:04.316Z,72.88
2019-04-14T00:49:09.320Z,72.72
2019-04-14T00:52:14.542Z,72.85
2019-04-14T00:55:18.899Z,72.90
2019-04-14T00:58:23.669Z,72.61
2019-04-14T01:01:28.621Z,72.18
2019-04-14T01:04:33.770Z,72.47
2019-04-14T01:07:39.079Z,72.52
2019-04-14T01:10:43.443Z,72.53
2019-04-14T01:13:48.636Z,73.08
2019-04-14T01:16:53.815Z,73.09
2019-04-14T01:19:59.236Z,73.26
2019-04-14T01:23:04.189Z,73.07
2019-04-14T01:26:09.328Z,72.69
2019-04-14T01:29:14.408Z,72.43
2019-04-14T01:32:19.698Z,73.07
2019-04-14T01:35:24.917Z,73.11
2019-04-14T01:38:29.719Z,73.15
2019-04-14T01:41:34.686Z,73.14
2019-04-14T01:44:39.603Z,72.66
2019-04-14T01:47:44.540Z,72.57
2019-04-14T01:51:07.105Z,72.87
2019-04-14T01:54:29.867Z,73.41
2019-04-14T01:57:41.447Z,72.81
2019-04-14T02:01:04.181Z,72.38
2019-04-14T02:04:09.519Z,72.08
2019-04-14T02:07:14.473Z,71.84
2019-04-14T02:10:19.437Z,71.45
2019-04-14T02:13:24.720Z,72.04
2019-04-14T02:16:37.952Z,72.05
2019-04-14T02:19:35.015Z,71.77
2019-04-14T02:22:39.760Z,71.67
2019-04-14T02:25:45.039Z,71.21
2019-04-14T02:28:50.434Z,71.13
2019-04-14T02:32:27.245Z,71.23
2019-04-14T02:35:28.466Z,70.99
2019-04-14T02:38:42.889Z,71.23
2019-04-14T02:41:49.261Z,71.19
2019-04-14T02:44:45.644Z,71.29
2019-04-14T02:50:59.497Z,71.31
2019-04-14T02:54:05.018Z,71.30
2019-04-14T02:57:12.145Z,71.57
2019-04-14T03:00:25.865Z,70.74
2019-04-14T03:03:27.831Z,71.43
2019-04-14T03:06:29.128Z,71.21
2019-04-14T03:12:44.117Z,70.95
2019-04-14T03:15:48.133Z,70.75
2019-04-14T03:19:06.632Z,70.76
2019-04-14T03:22:37.144Z,70.66
2019-04-14T03:25:39.361Z,70.56
2019-04-14T03:29:08.214Z,70.53
2019-04-14T03:32:10.410Z,70.80
2019-04-14T03:35:27.138Z,70.22
2019-04-14T03:44:28.110Z,70.50
2019-04-14T03:47:25.082Z,70.94
2019-04-14T03:50:37.834Z,70.74
2019-04-14T03:53:35.599Z,70.27
2019-04-14T03:56:49.385Z,70.40
2019-04-14T03:59:54.210Z,70.34
2019-04-14T04:02:58.415Z,70.62
2019-04-14T04:06:03.178Z,70.58
2019-04-14T04:09:08.426Z,70.24
2019-04-14T04:12:13.924Z,70.09
2019-04-14T04:15:19.259Z,69.34
2019-04-14T04:18:26.579Z,69.15
2019-04-14T04:21:51.277Z,69.56
2019-04-14T04:25:00.786Z,69.45
2019-04-14T04:28:23.209Z,70.26
2019-04-14T04:31:33.072Z,70.18
2019-04-14T04:35:04.309Z,70.40
2019-04-14T04:38:35.565Z,71.04
2019-04-14T04:41:40.728Z,71.30
2019-04-14T04:44:46.136Z,71.47
2019-04-14T04:47:51.305Z,71.50
2019-04-14T04:50:56.373Z,71.87
2019-04-14T04:54:01.697Z,71.77
2019-04-14T04:57:06.816Z,72.16
2019-04-14T05:00:11.620Z,72.29
2019-04-14T05:03:16.827Z,72.48
2019-04-14T05:07:12.828Z,72.60
2019-04-14T05:10:26.357Z,72.81
2019-04-14T05:13:38.742Z,73.13
2019-04-14T05:16:44.005Z,73.51
2019-04-14T05:19:48.295Z,73.84
2019-04-14T05:22:52.965Z,73.90
2019-04-14T05:25:58.099Z,74.30
2019-04-14T05:29:03.497Z,74.37
2019-04-14T05:32:08.808Z,74.44
2019-04-14T05:35:14.102Z,74.75
2019-04-14T05:38:19.096Z,74.57
2019-04-14T05:41:24.412Z,74.62
2019-04-14T05:44:29.687Z,74.80
2019-04-14T05:47:35.017Z,75.22
2019-04-14T05:50:40.074Z,75.13
2019-04-14T05:53:44.382Z,74.75
2019-04-14T05:56:49.376Z,75.08
2019-04-14T05:59:54.758Z,75.54
2019-04-14T06:02:59.503Z,74.80
2019-04-14T06:06:03.862Z,75.39
2019-04-14T06:09:08.300Z,75.13
2019-04-14T06:12:12.621Z,75.04
2019-04-14T06:15:17.028Z,74.86
2019-04-14T06:18:21.325Z,74.99
2019-04-14T06:21:25.615Z,75.16
2019-04-14T06:24:29.920Z,75.15
2019-04-14T06:27:34.370Z,75.48
2019-04-14T06:31:09.045Z,75.39
2019-04-14T06:34:15.477Z,75.54
2019-04-14T06:37:27.891Z,75.07
2019-04-14T06:40:36.364Z,75.12
2019-04-14T06:43:48.695Z,75.08
2019-04-14T06:46:46.683Z,75.54
2019-04-14T06:49:50.966Z,75.09
2019-04-14T06:52:55.248Z,75.17
2019-04-14T06:55:59.567Z,75.57
2019-04-14T06:59:03.937Z,75.45
2019-04-14T07:02:08.719Z,74.86
2019-04-14T07:05:13.018Z,75.00
2019-04-14T07:08:17.299Z,75.02
2019-04-14T07:11:21.588Z,74.65
2019-04-14T07:14:25.896Z,74.77
2019-04-14T07:17:30.193Z,74.72
2019-04-14T07:20:34.544Z,74.60
2019-04-14T07:23:38.900Z,74.37
2019-04-14T07:26:43.191Z,74.22
2019-04-14T07:29:57.072Z,73.82
2019-04-14T07:33:17.540Z,73.16
2019-04-14T07:36:36.103Z,72.93
2019-04-14T07:39:59.334Z,72.87
2019-04-14T07:43:14.396Z,72.82
2019-04-14T07:46:43.823Z,72.56
2019-04-14T07:50:14.515Z,72.43
2019-04-14T07:53:30.464Z,71.84
2019-04-14T07:56:59.495Z,72.45
2019-04-14T08:00:11.361Z,71.86
2019-04-14T08:03:34.344Z,71.54
2019-04-14T08:06:38.648Z,72.19
2019-04-14T08:09:42.959Z,72.82
2019-04-14T08:12:47.249Z,72.26
2019-04-14T08:15:51.528Z,72.14
2019-04-14T08:18:55.855Z,72.25
2019-04-14T08:22:00.143Z,72.87
2019-04-14T08:25:04.543Z,72.57
2019-04-14T08:28:08.819Z,72.57
2019-04-14T08:31:13.140Z,72.44
2019-04-14T08:34:17.449Z,71.54
2019-04-14T08:37:21.787Z,71.44
2019-04-14T08:40:26.072Z,71.93
2019-04-14T08:43:42.076Z,70.87
2019-04-14T08:47:08.182Z,70.52
2019-04-14T08:50:39.587Z,70.18
2019-04-14T08:53:47.351Z,70.37
2019-04-14T08:57:17.329Z,70.46
2019-04-14T09:00:52.595Z,69.81
2019-04-14T09:04:01.727Z,70.20
2019-04-14T09:07:28.134Z,70.15
2019-04-14T09:10:36.293Z,70.46
2019-04-14T09:13:40.610Z,70.55
2019-04-14T09:16:44.901Z,71.11
2019-04-14T09:19:49.271Z,70.20
2019-04-14T09:22:53.574Z,70.26
2019-04-14T09:25:57.856Z,70.59
2019-04-14T09:29:02.139Z,71.32
2019-04-14T09:32:08.328Z,71.42
2019-04-14T09:35:12.621Z,71.31
2019-04-14T09:38:16.926Z,71.07
2019-04-14T09:41:21.203Z,71.47
2019-04-14T09:44:25.520Z,72.14
2019-04-14T09:47:29.801Z,72.09
2019-04-14T09:50:34.093Z,72.52
2019-04-14T09:53:38.408Z,73.00
2019-04-14T09:56:42.710Z,73.26
2019-04-14T09:59:47.007Z,73.05
2019-04-14T10:02:51.314Z,71.51
2019-04-14T10:05:55.616Z,71.84
2019-04-14T10:08:59.915Z,72.56
2019-04-14T10:12:04.203Z,72.16
2019-04-14T10:15:08.708Z,72.54
2019-04-14T10:18:13.020Z,71.99
2019-04-14T10:21:17.992Z,71.77
2019-04-14T10:24:22.469Z,72.48
2019-04-14T10:27:26.770Z,73.04
2019-04-14T10:30:31.059Z,72.31
2019-04-14T10:33:35.345Z,71.72
2019-04-14T10:36:39.635Z,72.60
2019-04-14T10:39:43.929Z,72.96
2019-04-14T10:42:48.194Z,72.92
2019-04-14T10:45:52.577Z,73.53
2019-04-14T10:48:56.879Z,73.52
2019-04-14T10:52:01.199Z,73.53
2019-04-14T10:55:06.106Z,73.84
2019-04-14T10:58:10.409Z,74.53
2019-04-14T11:01:14.738Z,74.04
2019-04-14T11:04:19.072Z,73.84
2019-04-14T11:07:28.760Z,74.18
2019-04-14T11:10:33.075Z,73.90
2019-04-14T11:13:37.346Z,74.14
2019-04-14T11:16:41.666Z,74.00
2019-04-14T11:19:45.984Z,73.71
2019-04-14T11:23:02.501Z,73.53
2019-04-14T11:25:56.324Z,73.82
2019-04-14T11:29:00.656Z,73.28
2019-04-14T11:32:36.168Z,72.69
2019-04-14T11:36:05.542Z,72.70
2019-04-14T11:39:12.197Z,73.38
2019-04-14T11:42:16.626Z,73.22
2019-04-14T11:45:21.072Z,72.85
2019-04-14T11:48:25.368Z,72.74
2019-04-14T11:51:29.689Z,72.57
2019-04-14T11:54:33.976Z,72.43
2019-04-14T11:57:38.281Z,72.91
2019-04-14T12:01:11.444Z,72.57
2019-04-14T12:04:33.179Z,73.04
2019-04-14T12:07:50.149Z,72.03
2019-04-14T12:10:54.461Z,71.73
2019-04-14T12:13:58.779Z,71.32
2019-04-14T12:17:03.103Z,71.20
2019-04-14T12:20:08.445Z,71.11
2019-04-14T12:23:12.766Z,70.67
2019-04-14T12:26:17.073Z,70.59
2019-04-14T12:29:21.501Z,70.54
2019-04-14T12:32:25.904Z,69.97
2019-04-14T12:35:30.205Z,70.04
2019-04-14T12:38:34.509Z,69.73
2019-04-14T12:41:44.103Z,69.10
2019-04-14T12:45:05.794Z,69.58
2019-04-14T12:48:30.068Z,69.68
2019-04-14T12:51:37.123Z,69.54
2019-04-14T12:54:41.479Z,69.71
2019-04-14T12:57:47.753Z,70.26
2019-04-14T13:00:56.555Z,68.53
2019-04-14T13:04:00.898Z,68.12
2019-04-14T13:07:05.471Z,67.46
2019-04-14T13:10:10.066Z,67.95
2019-04-14T13:13:14.432Z,66.99
2019-04-14T13:16:18.748Z,65.79
2019-04-14T13:19:23.101Z,65.88
2019-04-14T13:22:34.143Z,65.13
2019-04-14T13:25:36.597Z,64.63
2019-04-14T13:28:40.909Z,64.97
2019-04-14T13:31:45.897Z,65.11
2019-04-14T13:34:50.222Z,64.43
2019-04-14T13:37:54.552Z,64.30
2019-04-14T13:40:58.873Z,64.19
2019-04-14T13:44:03.314Z,63.71
2019-04-14T13:47:07.622Z,63.89
2019-04-14T13:50:12.126Z,63.15
2019-04-14T13:53:16.481Z,64.21
2019-04-14T13:56:20.801Z,63.87
2019-04-14T13:59:25.129Z,63.36
2019-04-14T14:02:29.445Z,63.75
2019-04-14T14:05:36.615Z,63.08
2019-04-14T14:08:40.953Z,60.49
2019-04-14T14:12:07.061Z,59.53
2019-04-14T14:15:28.559Z,59.32
2019-04-14T14:18:40.450Z,59.48
2019-04-14T14:22:03.710Z,58.75
2019-04-14T14:25:14.247Z,59.06
2019-04-14T14:28:18.605Z,59.11
2019-04-14T14:31:22.948Z,60.16
2019-04-14T14:34:27.304Z,60.39
2019-04-14T14:37:31.674Z,59.38
2019-04-14T14:40:35.973Z,58.36
2019-04-14T14:43:40.347Z,59.13
2019-04-14T14:47:02.290Z,58.50
2019-04-14T14:50:24.416Z,58.19
2019-04-14T14:53:28.747Z,56.76
2019-04-14T14:56:33.125Z,58.00
2019-04-14T14:59:37.499Z,56.95
2019-04-14T15:02:41.880Z,56.81
2019-04-14T15:05:46.249Z,57.69
2019-04-14T15:08:50.579Z,57.06
2019-04-14T15:11:54.970Z,56.81
2019-04-14T15:14:59.306Z,57.30
2019-04-14T15:18:03.646Z,58.11
2019-04-14T15:21:08.179Z,57.88
2019-04-14T15:24:12.506Z,57.86
2019-04-14T15:27:16.853Z,58.26
2019-04-14T15:30:22.241Z,58.15
2019-04-14T15:33:26.615Z,58.77
2019-04-14T15:36:31.028Z,59.10
2019-04-14T15:39:37.596Z,58.82
2019-04-14T15:42:41.718Z,58.74
2019-04-14T15:45:46.061Z,58.10
2019-04-14T15:48:50.473Z,58.23
2019-04-14T15:51:54.827Z,58.94
2019-04-14T15:54:59.236Z,59.87
2019-04-14T15:58:16.210Z,60.09
2019-04-14T16:01:38.303Z,59.84
2019-04-14T16:05:00.751Z,59.50
2019-04-14T16:08:30.369Z,58.74
2019-04-14T16:11:45.107Z,58.98
2019-04-14T16:15:07.131Z,58.98
2019-04-14T16:18:28.881Z,58.70
2019-04-14T16:21:33.444Z,58.10
2019-04-14T16:24:37.891Z,57.66
2019-04-14T16:27:56.966Z,57.79
2019-04-14T16:31:32.374Z,57.31
2019-04-14T16:34:57.941Z,56.31
2019-04-14T16:38:02.387Z,56.69
2019-04-14T16:41:07.109Z,56.78
2019-04-14T16:44:11.625Z,57.68
2019-04-14T16:47:16.043Z,58.10
2019-04-14T16:50:20.475Z,58.36
2019-04-14T16:53:30.134Z,57.56
2019-04-14T16:56:53.763Z,57.73
2019-04-14T16:59:58.411Z,57.42
2019-04-14T17:03:02.918Z,57.38
2019-04-14T17:06:07.486Z,57.17
2019-04-14T17:09:12.138Z,57.98
2019-04-14T17:12:16.655Z,58.31
2019-04-14T17:15:43.194Z,58.54
2019-04-14T17:18:54.934Z,57.71
2019-04-14T17:22:24.078Z,58.00
2019-04-14T17:25:33.359Z,58.06
2019-04-14T17:29:14.915Z,58.59
2019-04-14T17:32:28.316Z,59.11
2019-04-14T17:35:42.986Z,57.84
2019-04-14T17:39:04.910Z,58.08
2019-04-14T17:42:22.839Z,57.70
2019-04-14T17:45:44.650Z,58.05
2019-04-14T17:49:14.089Z,59.28
2019-04-14T17:52:30.413Z,60.28
2019-04-14T17:55:50.542Z,61.15
2019-04-14T17:59:06.938Z,61.87
2019-04-14T18:02:27.761Z,61.34
2019-04-14T18:05:39.512Z,61.91
2019-04-14T18:09:02.961Z,62.37
2019-04-14T18:12:26.462Z,63.12
2019-04-14T18:15:40.684Z,62.78
2019-04-14T18:18:56.503Z,62.82
2019-04-14T18:22:01.035Z,63.34
2019-04-14T18:25:06.309Z,63.90
2019-04-14T18:28:31.756Z,64.18
2019-04-14T18:31:54.011Z,64.34
2019-04-14T18:35:25.988Z,64.31
2019-04-14T18:38:38.606Z,64.59
2019-04-14T18:41:51.374Z,65.10
2019-04-14T18:45:07.917Z,65.17
2019-04-14T18:48:30.067Z,65.41
2019-04-14T18:51:56.215Z,65.23
2019-04-14T18:55:17.476Z,65.24
2019-04-14T18:58:40.889Z,64.82
2019-04-14T19:01:46.235Z,64.72
2019-04-14T19:04:50.889Z,64.32
2019-04-14T19:07:55.552Z,64.49
2019-04-14T19:11:08.491Z,64.81
2019-04-14T19:14:16.893Z,64.54
2019-04-14T19:17:40.445Z,64.24
2019-04-14T19:20:48.163Z,64.45
2019-04-14T19:23:52.756Z,64.55
2019-04-14T19:26:59.074Z,64.51
2019-04-14T19:30:03.699Z,64.65
2019-04-14T19:33:08.372Z,64.83
2019-04-14T19:36:13.012Z,65.09
2019-04-14T19:39:17.674Z,65.37
2019-04-14T19:42:22.349Z,65.45
2019-04-14T19:45:29.186Z,66.07
2019-04-14T19:48:33.923Z,66.48
2019-04-14T19:51:39.084Z,66.72
2019-04-14T19:54:43.767Z,66.24
2019-04-14T19:57:48.272Z,66.79
2019-04-14T20:00:52.776Z,66.91
2019-04-14T20:03:57.317Z,66.57
2019-04-14T20:07:01.819Z,67.04
2019-04-14T20:10:09.146Z,66.94
2019-04-14T20:13:13.629Z,66.89
2019-04-14T20:16:35.757Z,67.37
2019-04-14T20:19:54.910Z,67.21
2019-04-14T20:23:21.467Z,67.78
2019-04-14T20:26:44.825Z,67.89
2019-04-14T20:29:52.319Z,68.18
2019-04-14T20:32:56.729Z,68.94
2019-04-14T20:36:01.096Z,69.38
2019-04-14T20:39:09.760Z,69.82
2019-04-14T20:42:14.388Z,70.33
2019-04-14T20:45:19.543Z,70.55
2019-04-14T20:48:23.967Z,71.04
2019-04-14T20:51:28.292Z,70.76
2019-04-14T20:54:32.595Z,70.64
2019-04-14T20:57:37.727Z,70.41
2019-04-14T21:00:42.214Z,70.28
2019-04-14T21:04:05.453Z,69.23
2019-04-14T21:07:28.687Z,66.99
2019-04-14T21:10:43.369Z,67.67
2019-04-14T21:14:06.765Z,69.11
2019-04-14T21:17:26.316Z,69.63
2019-04-14T21:20:51.883Z,70.23
2019-04-14T21:24:13.490Z,70.63
2019-04-14T21:27:45.590Z,70.71
2019-04-14T21:31:08.809Z,70.74
2019-04-14T21:34:35.126Z,70.49
2019-04-14T21:38:07.100Z,70.03
2019-04-14T21:41:19.036Z,70.06
2019-04-14T21:44:23.369Z,70.62
2019-04-14T21:47:27.770Z,70.73
2019-04-14T21:50:32.268Z,71.81
2019-04-14T21:53:36.643Z,72.00
2019-04-14T21:56:40.911Z,72.84
2019-04-14T22:00:22.918Z,73.51
2019-04-14T22:03:37.832Z,74.34
2019-04-14T22:06:42.532Z,74.64
2019-04-14T22:09:46.888Z,75.04
2019-04-14T22:12:51.178Z,76.11
2019-04-14T22:15:55.623Z,76.62
2019-04-14T22:18:59.915Z,77.31
2019-04-14T22:22:04.210Z,77.27
2019-04-14T22:25:08.831Z,77.40
2019-04-14T22:28:13.097Z,77.02
2019-04-14T22:31:17.371Z,76.94
2019-04-14T22:34:21.842Z,77.70
2019-04-14T22:37:26.120Z,77.92
2019-04-14T22:40:30.387Z,78.14
2019-04-14T22:43:34.668Z,78.46
2019-04-14T22:46:39.080Z,78.06
2019-04-14T22:49:43.372Z,78.21
2019-04-14T22:52:47.659Z,77.95
2019-04-14T22:55:52.020Z,77.75
2019-04-14T22:58:56.423Z,77.89
2019-04-14T23:02:07.389Z,77.76
2019-04-14T23:05:24.350Z,77.70
2019-04-14T23:08:41.847Z,77.97
2019-04-14T23:11:55.942Z,78.21
2019-04-14T23:15:19.198Z,78.28
2019-04-14T23:18:31.341Z,77.18
2019-04-14T23:21:39.854Z,77.27
2019-04-14T23:24:46.340Z,75.84
2019-04-14T23:27:50.743Z,74.92
2019-04-14T23:30:57.415Z,75.40
2019-04-14T23:34:01.021Z,75.24
2019-04-14T23:37:05.291Z,75.49
2019-04-14T23:40:09.770Z,75.90
2019-04-14T23:43:14.117Z,75.75
2019-04-14T23:46:18.398Z,76.09
2019-04-14T23:49:22.679Z,75.68
2019-04-14T23:52:26.968Z,75.98
2019-04-14T23:55:31.298Z,76.23
2019-04-14T23:58:35.567Z,76.24
